sensor_id;sensor_type;location;lat;lon;timestamp;P1;durP1;ratioP1;P2;durP2;ratioP2
72261;SDS011;60173;52.112;8.648;2023-02-28T00:00:32;14.20;;;6.38;;
72261;SDS011;60173;52.112;8.648;2023-02-28T00:02:59;11.45;;;6.05;;
72261;SDS011;60173;52.112;8.648;2023-02-28T00:05:26;12.73;;;6.00;;
72261;SDS011;60173;52.112;8.648;2023-02-28T00:07:54;13.50;;;6.05;;
72261;SDS011;60173;52.112;8.648;2023-02-28T00:10:22;14.82;;;6.68;;
72261;SDS011;60173;52.112;8.648;2023-02-28T00:12:51;20.63;;;8.75;;
72261;SDS011;60173;52.112;8.648;2023-02-28T00:15:18;18.83;;;8.20;;
72261;SDS011;60173;52.112;8.648;2023-02-28T00:17:45;16.98;;;7.35;;
72261;SDS011;60173;52.112;8.648;2023-02-28T00:20:13;14.40;;;6.90;;
72261;SDS011;60173;52.112;8.648;2023-02-28T00:22:41;16.42;;;7.18;;
72261;SDS011;60173;52.112;8.648;2023-02-28T00:25:10;17.55;;;8.05;;
72261;SDS011;60173;52.112;8.648;2023-02-28T00:27:38;18.00;;;7.70;;
72261;SDS011;60173;52.112;8.648;2023-02-28T00:30:05;16.88;;;7.93;;
72261;SDS011;60173;52.112;8.648;2023-02-28T00:32:33;16.90;;;8.60;;
72261;SDS011;60173;52.112;8.648;2023-02-28T00:35:00;21.05;;;8.65;;
72261;SDS011;60173;52.112;8.648;2023-02-28T00:37:26;15.52;;;7.88;;
72261;SDS011;60173;52.112;8.648;2023-02-28T00:39:53;21.55;;;8.75;;
72261;SDS011;60173;52.112;8.648;2023-02-28T00:42:19;22.98;;;8.50;;
72261;SDS011;60173;52.112;8.648;2023-02-28T00:44:45;16.35;;;8.13;;
72261;SDS011;60173;52.112;8.648;2023-02-28T00:47:12;18.55;;;9.35;;
72261;SDS011;60173;52.112;8.648;2023-02-28T00:49:38;16.25;;;8.60;;
72261;SDS011;60173;52.112;8.648;2023-02-28T00:52:04;15.85;;;8.35;;
72261;SDS011;60173;52.112;8.648;2023-02-28T00:54:31;22.70;;;9.20;;
72261;SDS011;60173;52.112;8.648;2023-02-28T00:56:57;18.90;;;9.25;;
72261;SDS011;60173;52.112;8.648;2023-02-28T00:59:25;16.35;;;8.15;;
72261;SDS011;60173;52.112;8.648;2023-02-28T01:01:51;19.95;;;8.55;;
72261;SDS011;60173;52.112;8.648;2023-02-28T01:04:18;14.40;;;8.60;;
72261;SDS011;60173;52.112;8.648;2023-02-28T01:06:44;21.05;;;9.75;;
72261;SDS011;60173;52.112;8.648;2023-02-28T01:09:11;17.88;;;9.30;;
72261;SDS011;60173;52.112;8.648;2023-02-28T01:11:38;19.25;;;9.60;;
72261;SDS011;60173;52.112;8.648;2023-02-28T01:14:04;19.23;;;9.32;;
72261;SDS011;60173;52.112;8.648;2023-02-28T01:16:30;19.58;;;9.23;;
72261;SDS011;60173;52.112;8.648;2023-02-28T01:18:57;18.45;;;9.35;;
72261;SDS011;60173;52.112;8.648;2023-02-28T01:21:24;18.75;;;9.18;;
72261;SDS011;60173;52.112;8.648;2023-02-28T01:23:50;15.25;;;7.57;;
72261;SDS011;60173;52.112;8.648;2023-02-28T01:26:21;16.83;;;7.88;;
72261;SDS011;60173;52.112;8.648;2023-02-28T01:28:49;17.42;;;8.43;;
72261;SDS011;60173;52.112;8.648;2023-02-28T01:31:17;16.58;;;7.90;;
72261;SDS011;60173;52.112;8.648;2023-02-28T01:33:43;14.30;;;7.90;;
72261;SDS011;60173;52.112;8.648;2023-02-28T01:36:11;20.05;;;9.10;;
72261;SDS011;60173;52.112;8.648;2023-02-28T01:38:40;16.77;;;8.93;;
72261;SDS011;60173;52.112;8.648;2023-02-28T01:41:06;18.90;;;8.50;;
72261;SDS011;60173;52.112;8.648;2023-02-28T01:46:09;16.25;;;8.65;;
72261;SDS011;60173;52.112;8.648;2023-02-28T01:48:38;19.65;;;9.20;;
72261;SDS011;60173;52.112;8.648;2023-02-28T01:51:09;16.52;;;8.27;;
72261;SDS011;60173;52.112;8.648;2023-02-28T01:53:41;16.08;;;8.45;;
72261;SDS011;60173;52.112;8.648;2023-02-28T01:56:12;18.00;;;7.90;;
72261;SDS011;60173;52.112;8.648;2023-02-28T01:58:44;22.60;;;9.30;;
72261;SDS011;60173;52.112;8.648;2023-02-28T02:01:10;17.92;;;8.75;;
72261;SDS011;60173;52.112;8.648;2023-02-28T02:03:37;18.50;;;8.50;;
72261;SDS011;60173;52.112;8.648;2023-02-28T02:06:03;20.33;;;8.85;;
72261;SDS011;60173;52.112;8.648;2023-02-28T02:08:30;19.80;;;8.80;;
72261;SDS011;60173;52.112;8.648;2023-02-28T02:10:59;16.55;;;8.60;;
72261;SDS011;60173;52.112;8.648;2023-02-28T02:21:54;15.43;;;8.85;;
72261;SDS011;60173;52.112;8.648;2023-02-28T02:27:39;14.77;;;8.35;;
72261;SDS011;60173;52.112;8.648;2023-02-28T02:30:40;21.58;;;8.68;;
72261;SDS011;60173;52.112;8.648;2023-02-28T02:36:26;15.82;;;8.77;;
72261;SDS011;60173;52.112;8.648;2023-02-28T02:39:06;16.63;;;7.93;;
72261;SDS011;60173;52.112;8.648;2023-02-28T02:41:47;17.52;;;7.72;;
72261;SDS011;60173;52.112;8.648;2023-02-28T02:44:19;17.95;;;8.35;;
72261;SDS011;60173;52.112;8.648;2023-02-28T02:46:54;16.98;;;8.60;;
72261;SDS011;60173;52.112;8.648;2023-02-28T02:49:28;18.70;;;8.57;;
72261;SDS011;60173;52.112;8.648;2023-02-28T02:52:01;19.40;;;9.07;;
72261;SDS011;60173;52.112;8.648;2023-02-28T02:54:31;17.83;;;8.75;;
72261;SDS011;60173;52.112;8.648;2023-02-28T02:57:06;18.20;;;9.40;;
72261;SDS011;60173;52.112;8.648;2023-02-28T02:59:37;15.43;;;7.80;;
72261;SDS011;60173;52.112;8.648;2023-02-28T03:02:06;16.92;;;8.13;;
72261;SDS011;60173;52.112;8.648;2023-02-28T03:04:42;13.93;;;7.38;;
72261;SDS011;60173;52.112;8.648;2023-02-28T03:07:11;15.68;;;8.30;;
72261;SDS011;60173;52.112;8.648;2023-02-28T03:09:37;13.07;;;7.03;;
72261;SDS011;60173;52.112;8.648;2023-02-28T03:12:04;14.18;;;8.02;;
72261;SDS011;60173;52.112;8.648;2023-02-28T03:14:50;16.65;;;8.43;;
72261;SDS011;60173;52.112;8.648;2023-02-28T03:17:42;16.17;;;8.02;;
72261;SDS011;60173;52.112;8.648;2023-02-28T03:20:33;14.07;;;7.88;;
72261;SDS011;60173;52.112;8.648;2023-02-28T03:31:02;13.23;;;7.18;;
72261;SDS011;60173;52.112;8.648;2023-02-28T03:33:46;13.60;;;7.30;;
72261;SDS011;60173;52.112;8.648;2023-02-28T03:36:17;15.65;;;8.13;;
72261;SDS011;60173;52.112;8.648;2023-02-28T03:38:54;16.90;;;7.35;;
72261;SDS011;60173;52.112;8.648;2023-02-28T03:41:30;15.40;;;7.80;;
72261;SDS011;60173;52.112;8.648;2023-02-28T03:44:11;15.80;;;7.43;;
72261;SDS011;60173;52.112;8.648;2023-02-28T03:46:55;19.02;;;7.90;;
72261;SDS011;60173;52.112;8.648;2023-02-28T03:49:30;12.80;;;7.40;;
72261;SDS011;60173;52.112;8.648;2023-02-28T03:52:01;15.45;;;7.85;;
72261;SDS011;60173;52.112;8.648;2023-02-28T03:54:31;17.15;;;8.13;;
72261;SDS011;60173;52.112;8.648;2023-02-28T03:59:58;16.77;;;7.20;;
72261;SDS011;60173;52.112;8.648;2023-02-28T04:02:28;18.35;;;7.32;;
72261;SDS011;60173;52.112;8.648;2023-02-28T04:04:54;17.55;;;8.10;;
72261;SDS011;60173;52.112;8.648;2023-02-28T04:07:20;14.63;;;8.07;;
72261;SDS011;60173;52.112;8.648;2023-02-28T04:09:47;17.33;;;7.70;;
72261;SDS011;60173;52.112;8.648;2023-02-28T04:12:13;13.40;;;7.57;;
72261;SDS011;60173;52.112;8.648;2023-02-28T04:14:39;17.15;;;7.68;;
72261;SDS011;60173;52.112;8.648;2023-02-28T04:17:06;14.88;;;7.32;;
72261;SDS011;60173;52.112;8.648;2023-02-28T04:19:32;17.25;;;7.32;;
72261;SDS011;60173;52.112;8.648;2023-02-28T04:21:58;15.68;;;7.30;;
72261;SDS011;60173;52.112;8.648;2023-02-28T04:24:26;13.90;;;7.57;;
72261;SDS011;60173;52.112;8.648;2023-02-28T04:26:54;17.90;;;7.85;;
72261;SDS011;60173;52.112;8.648;2023-02-28T04:29:23;17.60;;;8.65;;
72261;SDS011;60173;52.112;8.648;2023-02-28T04:31:54;15.07;;;7.80;;
72261;SDS011;60173;52.112;8.648;2023-02-28T04:34:21;19.17;;;8.27;;
72261;SDS011;60173;52.112;8.648;2023-02-28T04:36:48;13.45;;;7.20;;
72261;SDS011;60173;52.112;8.648;2023-02-28T04:39:27;19.15;;;7.88;;
72261;SDS011;60173;52.112;8.648;2023-02-28T04:41:54;14.40;;;7.90;;
72261;SDS011;60173;52.112;8.648;2023-02-28T04:44:20;16.65;;;7.60;;
72261;SDS011;60173;52.112;8.648;2023-02-28T04:46:47;13.65;;;7.25;;
72261;SDS011;60173;52.112;8.648;2023-02-28T04:49:14;16.88;;;8.15;;
72261;SDS011;60173;52.112;8.648;2023-02-28T04:51:41;14.23;;;7.45;;
72261;SDS011;60173;52.112;8.648;2023-02-28T04:54:08;18.80;;;7.82;;
72261;SDS011;60173;52.112;8.648;2023-02-28T04:56:34;18.17;;;8.55;;
72261;SDS011;60173;52.112;8.648;2023-02-28T04:59:00;15.70;;;8.20;;
72261;SDS011;60173;52.112;8.648;2023-02-28T05:01:30;16.88;;;8.82;;
72261;SDS011;60173;52.112;8.648;2023-02-28T05:03:59;19.85;;;8.55;;
72261;SDS011;60173;52.112;8.648;2023-02-28T05:06:27;15.23;;;8.77;;
72261;SDS011;60173;52.112;8.648;2023-02-28T05:08:54;16.20;;;8.40;;
72261;SDS011;60173;52.112;8.648;2023-02-28T05:11:25;19.58;;;8.95;;
72261;SDS011;60173;52.112;8.648;2023-02-28T05:13:54;15.65;;;8.95;;
72261;SDS011;60173;52.112;8.648;2023-02-28T05:16:21;16.35;;;8.52;;
72261;SDS011;60173;52.112;8.648;2023-02-28T05:18:47;13.77;;;8.25;;
72261;SDS011;60173;52.112;8.648;2023-02-28T05:21:24;22.67;;;9.75;;
72261;SDS011;60173;52.112;8.648;2023-02-28T05:23:57;16.38;;;8.68;;
72261;SDS011;60173;52.112;8.648;2023-02-28T05:26:25;15.48;;;8.60;;
72261;SDS011;60173;52.112;8.648;2023-02-28T05:28:52;17.75;;;9.27;;
72261;SDS011;60173;52.112;8.648;2023-02-28T05:31:19;18.77;;;9.15;;
72261;SDS011;60173;52.112;8.648;2023-02-28T05:33:46;19.65;;;10.20;;
72261;SDS011;60173;52.112;8.648;2023-02-28T05:36:12;17.13;;;9.23;;
72261;SDS011;60173;52.112;8.648;2023-02-28T05:38:39;20.48;;;9.63;;
72261;SDS011;60173;52.112;8.648;2023-02-28T05:41:09;21.85;;;10.75;;
72261;SDS011;60173;52.112;8.648;2023-02-28T05:43:36;21.95;;;10.05;;
72261;SDS011;60173;52.112;8.648;2023-02-28T05:46:04;20.50;;;10.90;;
72261;SDS011;60173;52.112;8.648;2023-02-28T05:48:31;22.92;;;10.93;;
72261;SDS011;60173;52.112;8.648;2023-02-28T05:50:59;21.67;;;10.02;;
72261;SDS011;60173;52.112;8.648;2023-02-28T05:53:26;19.33;;;10.02;;
72261;SDS011;60173;52.112;8.648;2023-02-28T05:55:52;22.85;;;10.55;;
72261;SDS011;60173;52.112;8.648;2023-02-28T05:58:19;16.42;;;10.70;;
72261;SDS011;60173;52.112;8.648;2023-02-28T06:00:45;20.33;;;10.57;;
72261;SDS011;60173;52.112;8.648;2023-02-28T06:03:11;21.92;;;11.13;;
72261;SDS011;60173;52.112;8.648;2023-02-28T06:05:38;21.05;;;10.85;;
72261;SDS011;60173;52.112;8.648;2023-02-28T06:08:04;24.88;;;11.02;;
72261;SDS011;60173;52.112;8.648;2023-02-28T06:10:31;24.50;;;11.20;;
72261;SDS011;60173;52.112;8.648;2023-02-28T06:12:59;25.55;;;11.48;;
72261;SDS011;60173;52.112;8.648;2023-02-28T06:15:26;21.20;;;11.93;;
72261;SDS011;60173;52.112;8.648;2023-02-28T06:17:52;22.85;;;11.50;;
72261;SDS011;60173;52.112;8.648;2023-02-28T06:20:19;21.13;;;10.98;;
72261;SDS011;60173;52.112;8.648;2023-02-28T06:22:45;32.10;;;12.15;;
72261;SDS011;60173;52.112;8.648;2023-02-28T06:25:12;20.25;;;11.15;;
72261;SDS011;60173;52.112;8.648;2023-02-28T06:27:38;20.10;;;10.35;;
72261;SDS011;60173;52.112;8.648;2023-02-28T06:30:05;26.90;;;12.40;;
72261;SDS011;60173;52.112;8.648;2023-02-28T06:32:31;23.20;;;11.52;;
72261;SDS011;60173;52.112;8.648;2023-02-28T06:34:58;20.13;;;10.95;;
72261;SDS011;60173;52.112;8.648;2023-02-28T06:37:24;26.67;;;11.63;;
72261;SDS011;60173;52.112;8.648;2023-02-28T06:39:50;24.45;;;12.15;;
72261;SDS011;60173;52.112;8.648;2023-02-28T06:42:17;23.65;;;12.38;;
72261;SDS011;60173;52.112;8.648;2023-02-28T06:44:43;20.52;;;11.45;;
72261;SDS011;60173;52.112;8.648;2023-02-28T06:47:10;22.83;;;12.63;;
72261;SDS011;60173;52.112;8.648;2023-02-28T06:49:36;27.50;;;12.38;;
72261;SDS011;60173;52.112;8.648;2023-02-28T06:52:02;25.27;;;12.50;;
72261;SDS011;60173;52.112;8.648;2023-02-28T06:54:29;29.15;;;11.95;;
72261;SDS011;60173;52.112;8.648;2023-02-28T06:56:57;24.73;;;12.00;;
72261;SDS011;60173;52.112;8.648;2023-02-28T06:59:23;21.13;;;10.60;;
72261;SDS011;60173;52.112;8.648;2023-02-28T07:01:50;18.60;;;10.25;;
72261;SDS011;60173;52.112;8.648;2023-02-28T07:04:16;23.17;;;10.23;;
72261;SDS011;60173;52.112;8.648;2023-02-28T07:06:42;22.65;;;10.77;;
72261;SDS011;60173;52.112;8.648;2023-02-28T07:09:09;17.20;;;9.15;;
72261;SDS011;60173;52.112;8.648;2023-02-28T07:11:35;21.00;;;10.40;;
72261;SDS011;60173;52.112;8.648;2023-02-28T07:14:02;19.65;;;9.23;;
72261;SDS011;60173;52.112;8.648;2023-02-28T07:16:28;17.45;;;8.85;;
72261;SDS011;60173;52.112;8.648;2023-02-28T07:18:55;21.33;;;9.95;;
72261;SDS011;60173;52.112;8.648;2023-02-28T07:21:21;17.48;;;9.23;;
72261;SDS011;60173;52.112;8.648;2023-02-28T07:23:48;18.48;;;9.68;;
72261;SDS011;60173;52.112;8.648;2023-02-28T07:26:15;18.45;;;9.43;;
72261;SDS011;60173;52.112;8.648;2023-02-28T07:28:44;18.48;;;9.00;;
72261;SDS011;60173;52.112;8.648;2023-02-28T07:31:11;21.05;;;10.20;;
72261;SDS011;60173;52.112;8.648;2023-02-28T07:33:39;23.58;;;9.48;;
72261;SDS011;60173;52.112;8.648;2023-02-28T07:36:07;20.63;;;10.07;;
72261;SDS011;60173;52.112;8.648;2023-02-28T07:38:39;19.45;;;10.30;;
72261;SDS011;60173;52.112;8.648;2023-02-28T07:41:05;27.25;;;10.95;;
72261;SDS011;60173;52.112;8.648;2023-02-28T07:43:32;20.23;;;10.85;;
72261;SDS011;60173;52.112;8.648;2023-02-28T07:46:03;23.00;;;12.05;;
72261;SDS011;60173;52.112;8.648;2023-02-28T07:48:34;23.13;;;11.88;;
72261;SDS011;60173;52.112;8.648;2023-02-28T07:51:00;25.75;;;12.40;;
72261;SDS011;60173;52.112;8.648;2023-02-28T07:53:27;27.33;;;13.07;;
72261;SDS011;60173;52.112;8.648;2023-02-28T07:55:57;18.48;;;10.65;;
72261;SDS011;60173;52.112;8.648;2023-02-28T07:58:25;21.50;;;10.23;;
72261;SDS011;60173;52.112;8.648;2023-02-28T08:00:52;17.13;;;9.85;;
72261;SDS011;60173;52.112;8.648;2023-02-28T08:03:20;19.52;;;9.13;;
72261;SDS011;60173;52.112;8.648;2023-02-28T08:05:48;21.58;;;10.27;;
72261;SDS011;60173;52.112;8.648;2023-02-28T08:08:15;24.33;;;10.05;;
72261;SDS011;60173;52.112;8.648;2023-02-28T08:10:42;17.77;;;9.05;;
72261;SDS011;60173;52.112;8.648;2023-02-28T08:13:09;16.17;;;9.35;;
72261;SDS011;60173;52.112;8.648;2023-02-28T08:15:35;20.08;;;9.77;;
72261;SDS011;60173;52.112;8.648;2023-02-28T08:18:02;16.33;;;8.93;;
72261;SDS011;60173;52.112;8.648;2023-02-28T08:20:28;18.63;;;9.23;;
72261;SDS011;60173;52.112;8.648;2023-02-28T08:22:55;19.30;;;9.68;;
72261;SDS011;60173;52.112;8.648;2023-02-28T08:25:21;18.30;;;9.40;;
72261;SDS011;60173;52.112;8.648;2023-02-28T08:27:49;20.38;;;10.57;;
72261;SDS011;60173;52.112;8.648;2023-02-28T08:30:17;18.23;;;9.18;;
72261;SDS011;60173;52.112;8.648;2023-02-28T08:32:43;16.38;;;9.45;;
72261;SDS011;60173;52.112;8.648;2023-02-28T08:35:10;16.60;;;8.57;;
72261;SDS011;60173;52.112;8.648;2023-02-28T08:37:36;16.25;;;9.15;;
72261;SDS011;60173;52.112;8.648;2023-02-28T08:40:03;17.65;;;8.48;;
72261;SDS011;60173;52.112;8.648;2023-02-28T08:42:30;14.90;;;8.93;;
72261;SDS011;60173;52.112;8.648;2023-02-28T08:44:58;18.15;;;8.75;;
72261;SDS011;60173;52.112;8.648;2023-02-28T08:47:24;16.45;;;8.55;;
72261;SDS011;60173;52.112;8.648;2023-02-28T08:49:51;18.45;;;8.40;;
72261;SDS011;60173;52.112;8.648;2023-02-28T08:52:17;13.98;;;8.82;;
72261;SDS011;60173;52.112;8.648;2023-02-28T08:54:43;21.85;;;10.20;;
72261;SDS011;60173;52.112;8.648;2023-02-28T08:57:10;17.67;;;9.63;;
72261;SDS011;60173;52.112;8.648;2023-02-28T08:59:36;16.05;;;7.90;;
72261;SDS011;60173;52.112;8.648;2023-02-28T09:02:03;13.18;;;7.43;;
72261;SDS011;60173;52.112;8.648;2023-02-28T09:04:29;11.02;;;6.15;;
72261;SDS011;60173;52.112;8.648;2023-02-28T09:06:55;9.77;;;5.38;;
72261;SDS011;60173;52.112;8.648;2023-02-28T09:09:22;9.77;;;4.95;;
72261;SDS011;60173;52.112;8.648;2023-02-28T09:11:48;14.93;;;5.93;;
72261;SDS011;60173;52.112;8.648;2023-02-28T09:14:14;11.02;;;6.60;;
72261;SDS011;60173;52.112;8.648;2023-02-28T09:16:41;9.95;;;4.25;;
72261;SDS011;60173;52.112;8.648;2023-02-28T09:19:10;9.80;;;4.97;;
72261;SDS011;60173;52.112;8.648;2023-02-28T09:21:37;11.73;;;6.43;;
72261;SDS011;60173;52.112;8.648;2023-02-28T09:24:07;15.35;;;6.20;;
72261;SDS011;60173;52.112;8.648;2023-02-28T09:26:34;16.83;;;8.40;;
72261;SDS011;60173;52.112;8.648;2023-02-28T09:29:12;15.43;;;5.43;;
72261;SDS011;60173;52.112;8.648;2023-02-28T09:31:38;10.68;;;5.10;;
72261;SDS011;60173;52.112;8.648;2023-02-28T09:34:05;6.88;;;3.22;;
72261;SDS011;60173;52.112;8.648;2023-02-28T09:36:31;6.75;;;2.85;;
72261;SDS011;60173;52.112;8.648;2023-02-28T09:39:09;5.85;;;3.05;;
72261;SDS011;60173;52.112;8.648;2023-02-28T09:41:37;5.10;;;2.53;;
72261;SDS011;60173;52.112;8.648;2023-02-28T09:44:06;2.65;;;1.95;;
72261;SDS011;60173;52.112;8.648;2023-02-28T09:46:40;5.00;;;1.75;;
72261;SDS011;60173;52.112;8.648;2023-02-28T09:49:15;3.20;;;1.50;;
72261;SDS011;60173;52.112;8.648;2023-02-28T09:51:47;4.57;;;1.60;;
72261;SDS011;60173;52.112;8.648;2023-02-28T09:54:26;4.70;;;1.60;;
72261;SDS011;60173;52.112;8.648;2023-02-28T09:59:39;3.35;;;1.60;;
72261;SDS011;60173;52.112;8.648;2023-02-28T10:04:54;1.85;;;1.38;;
72261;SDS011;60173;52.112;8.648;2023-02-28T10:07:38;4.40;;;1.67;;
72261;SDS011;60173;52.112;8.648;2023-02-28T10:10:24;3.08;;;1.58;;
72261;SDS011;60173;52.112;8.648;2023-02-28T10:12:56;3.88;;;1.58;;
72261;SDS011;60173;52.112;8.648;2023-02-28T10:15:27;3.42;;;1.45;;
72261;SDS011;60173;52.112;8.648;2023-02-28T10:17:58;3.03;;;1.50;;
72261;SDS011;60173;52.112;8.648;2023-02-28T10:20:35;1.52;;;1.30;;
72261;SDS011;60173;52.112;8.648;2023-02-28T10:23:14;3.88;;;1.55;;
72261;SDS011;60173;52.112;8.648;2023-02-28T10:25:48;4.30;;;1.50;;
72261;SDS011;60173;52.112;8.648;2023-02-28T10:28:20;2.05;;;1.38;;
72261;SDS011;60173;52.112;8.648;2023-02-28T10:30:47;3.53;;;1.52;;
72261;SDS011;60173;52.112;8.648;2023-02-28T10:33:23;3.33;;;1.80;;
72261;SDS011;60173;52.112;8.648;2023-02-28T10:35:51;2.55;;;1.50;;
72261;SDS011;60173;52.112;8.648;2023-02-28T10:38:20;6.40;;;1.90;;
72261;SDS011;60173;52.112;8.648;2023-02-28T10:40:49;2.00;;;1.40;;
72261;SDS011;60173;52.112;8.648;2023-02-28T10:48:30;5.55;;;1.90;;
72261;SDS011;60173;52.112;8.648;2023-02-28T10:51:00;5.50;;;2.20;;
72261;SDS011;60173;52.112;8.648;2023-02-28T10:56:27;7.32;;;1.60;;
72261;SDS011;60173;52.112;8.648;2023-02-28T10:58:55;4.43;;;1.55;;
72261;SDS011;60173;52.112;8.648;2023-02-28T11:03:56;2.28;;;1.35;;
72261;SDS011;60173;52.112;8.648;2023-02-28T11:06:25;3.25;;;1.65;;
72261;SDS011;60173;52.112;8.648;2023-02-28T11:08:56;4.40;;;1.77;;
72261;SDS011;60173;52.112;8.648;2023-02-28T11:11:26;3.28;;;1.70;;
72261;SDS011;60173;52.112;8.648;2023-02-28T11:13:56;4.35;;;1.73;;
72261;SDS011;60173;52.112;8.648;2023-02-28T11:16:35;4.32;;;1.75;;
72261;SDS011;60173;52.112;8.648;2023-02-28T11:19:04;2.88;;;1.65;;
72261;SDS011;60173;52.112;8.648;2023-02-28T11:21:45;2.50;;;1.67;;
72261;SDS011;60173;52.112;8.648;2023-02-28T11:26:50;3.63;;;1.70;;
72261;SDS011;60173;52.112;8.648;2023-02-28T11:34:43;2.83;;;1.52;;
72261;SDS011;60173;52.112;8.648;2023-02-28T11:37:12;4.20;;;1.60;;
72261;SDS011;60173;52.112;8.648;2023-02-28T11:39:44;5.80;;;2.42;;
72261;SDS011;60173;52.112;8.648;2023-02-28T11:45:15;5.45;;;2.17;;
72261;SDS011;60173;52.112;8.648;2023-02-28T11:48:09;2.63;;;1.88;;
72261;SDS011;60173;52.112;8.648;2023-02-28T11:51:05;3.90;;;1.80;;
72261;SDS011;60173;52.112;8.648;2023-02-28T11:56:47;4.63;;;2.90;;
72261;SDS011;60173;52.112;8.648;2023-02-28T12:02:22;2.95;;;1.90;;
72261;SDS011;60173;52.112;8.648;2023-02-28T12:10:20;5.18;;;1.83;;
72261;SDS011;60173;52.112;8.648;2023-02-28T12:15:56;3.70;;;2.38;;
72261;SDS011;60173;52.112;8.648;2023-02-28T12:18:49;3.03;;;1.73;;
72261;SDS011;60173;52.112;8.648;2023-02-28T12:27:02;3.20;;;1.58;;
72261;SDS011;60173;52.112;8.648;2023-02-28T12:29:35;4.25;;;1.70;;
72261;SDS011;60173;52.112;8.648;2023-02-28T12:32:33;3.63;;;1.88;;
72261;SDS011;60173;52.112;8.648;2023-02-28T12:35:11;2.40;;;1.50;;
72261;SDS011;60173;52.112;8.648;2023-02-28T12:37:41;5.43;;;2.20;;
72261;SDS011;60173;52.112;8.648;2023-02-28T12:40:12;4.95;;;1.80;;
72261;SDS011;60173;52.112;8.648;2023-02-28T12:42:49;4.75;;;1.85;;
72261;SDS011;60173;52.112;8.648;2023-02-28T12:45:19;4.03;;;1.92;;
72261;SDS011;60173;52.112;8.648;2023-02-28T12:47:50;2.72;;;1.63;;
72261;SDS011;60173;52.112;8.648;2023-02-28T12:50:21;3.97;;;2.00;;
72261;SDS011;60173;52.112;8.648;2023-02-28T12:55:46;5.22;;;2.00;;
72261;SDS011;60173;52.112;8.648;2023-02-28T12:58:19;3.13;;;1.83;;
72261;SDS011;60173;52.112;8.648;2023-02-28T13:01:05;4.13;;;2.15;;
72261;SDS011;60173;52.112;8.648;2023-02-28T13:04:03;4.45;;;2.00;;
72261;SDS011;60173;52.112;8.648;2023-02-28T13:09:56;3.42;;;2.10;;
72261;SDS011;60173;52.112;8.648;2023-02-28T13:12:25;3.70;;;2.08;;
72261;SDS011;60173;52.112;8.648;2023-02-28T13:15:01;7.95;;;2.17;;
72261;SDS011;60173;52.112;8.648;2023-02-28T13:17:34;3.38;;;2.05;;
72261;SDS011;60173;52.112;8.648;2023-02-28T13:20:01;5.70;;;2.22;;
72261;SDS011;60173;52.112;8.648;2023-02-28T13:27:49;13.82;;;6.82;;
72261;SDS011;60173;52.112;8.648;2023-02-28T13:36:08;4.63;;;2.05;;
72261;SDS011;60173;52.112;8.648;2023-02-28T13:38:56;4.25;;;2.05;;
72261;SDS011;60173;52.112;8.648;2023-02-28T13:46:35;4.47;;;2.10;;
72261;SDS011;60173;52.112;8.648;2023-02-28T13:51:53;4.82;;;2.28;;
72261;SDS011;60173;52.112;8.648;2023-02-28T14:08:35;2.88;;;2.13;;
72261;SDS011;60173;52.112;8.648;2023-02-28T14:11:04;4.63;;;2.20;;
72261;SDS011;60173;52.112;8.648;2023-02-28T14:13:39;5.65;;;2.40;;
72261;SDS011;60173;52.112;8.648;2023-02-28T14:16:06;3.95;;;2.20;;
72261;SDS011;60173;52.112;8.648;2023-02-28T14:18:40;5.40;;;2.42;;
72261;SDS011;60173;52.112;8.648;2023-02-28T14:26:47;4.60;;;2.08;;
72261;SDS011;60173;52.112;8.648;2023-02-28T14:32:25;5.20;;;2.10;;
72261;SDS011;60173;52.112;8.648;2023-02-28T14:37:29;10.88;;;2.72;;
72261;SDS011;60173;52.112;8.648;2023-02-28T14:39:59;5.95;;;2.80;;
72261;SDS011;60173;52.112;8.648;2023-02-28T14:42:28;6.15;;;2.08;;
72261;SDS011;60173;52.112;8.648;2023-02-28T14:44:59;5.03;;;2.65;;
72261;SDS011;60173;52.112;8.648;2023-02-28T14:47:32;4.25;;;2.33;;
72261;SDS011;60173;52.112;8.648;2023-02-28T14:50:01;4.55;;;2.40;;
72261;SDS011;60173;52.112;8.648;2023-02-28T14:52:30;3.53;;;1.90;;
72261;SDS011;60173;52.112;8.648;2023-02-28T14:55:01;4.72;;;1.95;;
72261;SDS011;60173;52.112;8.648;2023-02-28T14:57:31;4.03;;;2.17;;
72261;SDS011;60173;52.112;8.648;2023-02-28T15:02:43;5.82;;;2.10;;
72261;SDS011;60173;52.112;8.648;2023-02-28T15:07:36;4.50;;;2.33;;
72261;SDS011;60173;52.112;8.648;2023-02-28T15:10:19;5.25;;;2.30;;
72261;SDS011;60173;52.112;8.648;2023-02-28T15:13:35;4.82;;;2.63;;
72261;SDS011;60173;52.112;8.648;2023-02-28T15:15:53;4.90;;;2.67;;
72261;SDS011;60173;52.112;8.648;2023-02-28T15:18:37;7.40;;;2.95;;
72261;SDS011;60173;52.112;8.648;2023-02-28T15:21:18;6.07;;;2.42;;
72261;SDS011;60173;52.112;8.648;2023-02-28T15:23:54;7.03;;;3.05;;
72261;SDS011;60173;52.112;8.648;2023-02-28T15:26:26;5.43;;;2.53;;
72261;SDS011;60173;52.112;8.648;2023-02-28T15:29:00;4.78;;;2.30;;
72261;SDS011;60173;52.112;8.648;2023-02-28T15:34:25;7.43;;;2.60;;
72261;SDS011;60173;52.112;8.648;2023-02-28T15:40:07;4.72;;;2.45;;
72261;SDS011;60173;52.112;8.648;2023-02-28T15:42:38;5.55;;;2.65;;
72261;SDS011;60173;52.112;8.648;2023-02-28T15:45:04;4.93;;;2.53;;
72261;SDS011;60173;52.112;8.648;2023-02-28T15:47:31;6.05;;;2.97;;
72261;SDS011;60173;52.112;8.648;2023-02-28T15:50:00;4.85;;;2.50;;
72261;SDS011;60173;52.112;8.648;2023-02-28T15:52:29;7.45;;;3.50;;
72261;SDS011;60173;52.112;8.648;2023-02-28T15:54:59;5.32;;;2.65;;
72261;SDS011;60173;52.112;8.648;2023-02-28T15:57:36;6.07;;;2.75;;
72261;SDS011;60173;52.112;8.648;2023-02-28T16:00:02;6.70;;;3.58;;
72261;SDS011;60173;52.112;8.648;2023-02-28T16:02:33;6.00;;;2.95;;
72261;SDS011;60173;52.112;8.648;2023-02-28T16:05:12;6.03;;;3.17;;
72261;SDS011;60173;52.112;8.648;2023-02-28T16:07:45;8.55;;;3.40;;
72261;SDS011;60173;52.112;8.648;2023-02-28T16:10:12;7.35;;;2.58;;
72261;SDS011;60173;52.112;8.648;2023-02-28T16:12:38;6.13;;;2.92;;
72261;SDS011;60173;52.112;8.648;2023-02-28T16:15:07;6.97;;;3.17;;
72261;SDS011;60173;52.112;8.648;2023-02-28T16:17:44;7.57;;;2.90;;
72261;SDS011;60173;52.112;8.648;2023-02-28T16:22:42;7.47;;;3.83;;
72261;SDS011;60173;52.112;8.648;2023-02-28T16:25:15;7.47;;;3.05;;
72261;SDS011;60173;52.112;8.648;2023-02-28T16:30:21;4.65;;;2.60;;
72261;SDS011;60173;52.112;8.648;2023-02-28T16:32:49;5.97;;;2.47;;
72261;SDS011;60173;52.112;8.648;2023-02-28T16:35:17;6.15;;;2.50;;
72261;SDS011;60173;52.112;8.648;2023-02-28T16:37:45;6.05;;;2.60;;
72261;SDS011;60173;52.112;8.648;2023-02-28T16:40:15;6.72;;;2.90;;
72261;SDS011;60173;52.112;8.648;2023-02-28T16:42:47;6.88;;;2.97;;
72261;SDS011;60173;52.112;8.648;2023-02-28T16:45:19;4.60;;;2.55;;
72261;SDS011;60173;52.112;8.648;2023-02-28T16:47:51;7.95;;;3.47;;
72261;SDS011;60173;52.112;8.648;2023-02-28T16:50:22;4.60;;;2.72;;
72261;SDS011;60173;52.112;8.648;2023-02-28T16:52:53;4.97;;;2.92;;
72261;SDS011;60173;52.112;8.648;2023-02-28T16:55:20;7.22;;;3.30;;
72261;SDS011;60173;52.112;8.648;2023-02-28T16:57:51;6.93;;;3.10;;
72261;SDS011;60173;52.112;8.648;2023-02-28T17:00:19;7.38;;;3.35;;
72261;SDS011;60173;52.112;8.648;2023-02-28T17:02:45;8.13;;;3.35;;
72261;SDS011;60173;52.112;8.648;2023-02-28T17:05:13;7.03;;;3.40;;
72261;SDS011;60173;52.112;8.648;2023-02-28T17:07:40;5.22;;;3.03;;
72261;SDS011;60173;52.112;8.648;2023-02-28T17:12:38;6.53;;;3.58;;
72261;SDS011;60173;52.112;8.648;2023-02-28T17:15:05;6.65;;;3.35;;
72261;SDS011;60173;52.112;8.648;2023-02-28T17:17:35;8.20;;;3.33;;
72261;SDS011;60173;52.112;8.648;2023-02-28T17:20:02;7.05;;;3.65;;